Time;durP1;ratioP1;P1;durP2;ratioP2;P2;SDS_P1;SDS_P2;PMS_P1;PMS_P2;Temp;Humidity;BMP_temperature;BMP_pressure;BME280_temperature;BME280_humidity;BME280_pressure;Samples;Min_cycle;Max_cycle;Signal;HPM_P1;HPM_P2
2022/03/24 00:00:16;;;;;;;30.63;17.63;;;7.30;86.20;;;;;;4973098;28;20501;-80
2022/03/24 00:02:42;;;;;;;35.22;19.25;;;7.20;88.10;;;;;;4974452;28;20046;-80
2022/03/24 00:05:08;;;;;;;31.95;19.65;;;7.20;85.80;;;;;;4979806;28;20065;-79
2022/03/24 00:07:34;;;;;;;37.47;23.00;;;7.20;87.90;;;;;;4991540;28;20121;-81
2022/03/24 00:10:00;;;;;;;37.72;21.77;;;7.10;88.10;;;;;;4987022;28;20482;-79
2022/03/24 00:12:27;;;;;;;37.78;21.98;;;7.10;88.80;;;;;;4970062;28;20116;-81
2022/03/24 00:14:53;;;;;;;38.88;22.58;;;7.10;88.80;;;;;;5004896;28;20129;-80
2022/03/24 00:17:18;;;;;;;37.15;20.25;;;7.00;89.40;;;;;;4983666;28;20108;-81
2022/03/24 00:19:44;;;;;;;40.83;21.80;;;7.00;88.10;;;;;;4984373;28;20125;-79
2022/03/24 00:22:10;;;;;;;48.85;23.48;;;6.80;93.00;;;;;;5002625;28;20099;-80
2022/03/24 00:24:37;;;;;;;38.25;21.77;;;6.50;93.20;;;;;;4990645;28;20091;-79
2022/03/24 00:27:03;;;;;;;30.77;18.33;;;6.60;90.60;;;;;;4973198;28;20116;-79
2022/03/24 00:29:29;;;;;;;39.13;19.83;;;6.80;90.90;;;;;;4987804;28;20037;-80
2022/03/24 00:31:54;;;;;;;32.63;17.83;;;6.90;90.50;;;;;;4989082;28;20037;-79
2022/03/24 00:34:20;;;;;;;35.22;20.02;;;6.90;90.30;;;;;;4976043;28;20432;-80
2022/03/24 00:36:45;;;;;;;29.02;18.40;;;6.80;90.30;;;;;;4967211;28;20135;-81
2022/03/24 00:39:11;;;;;;;44.63;24.15;;;6.70;90.70;;;;;;4973128;28;20036;-80
2022/03/24 00:41:36;;;;;;;41.35;23.33;;;6.50;93.00;;;;;;4975839;28;20029;-80
2022/03/24 00:44:03;;;;;;;42.20;22.77;;;6.40;92.50;;;;;;4992587;28;20037;-79
2022/03/24 00:46:31;;;;;;;48.30;23.00;;;6.40;93.70;;;;;;4972110;28;20439;-78
2022/03/24 00:48:57;;;;;;;40.60;21.98;;;6.30;95.10;;;;;;4973924;28;20504;-79
2022/03/24 00:51:22;;;;;;;40.35;22.48;;;6.30;95.70;;;;;;4973131;28;20038;-79
2022/03/24 00:53:48;;;;;;;40.03;23.33;;;6.20;97.00;;;;;;4972885;28;20386;-80
2022/03/24 00:56:13;;;;;;;38.67;22.48;;;6.00;97.60;;;;;;4983609;28;20045;-79
2022/03/24 00:58:39;;;;;;;43.55;23.98;;;5.90;97.70;;;;;;4988126;28;20421;-79
2022/03/24 01:01:06;;;;;;;30.48;18.33;;;6.00;96.10;;;;;;4976966;28;20028;-78
2022/03/24 01:03:32;;;;;;;32.17;18.48;;;6.00;91.20;;;;;;4977118;28;20419;-79
2022/03/24 01:05:57;;;;;;;29.63;17.35;;;6.20;94.00;;;;;;4970455;28;20037;-78
2022/03/24 01:08:23;;;;;;;33.92;20.33;;;6.20;92.90;;;;;;4987511;28;20057;-78
2022/03/24 01:10:49;;;;;;;39.80;21.85;;;6.20;92.60;;;;;;4969394;28;20051;-78
2022/03/24 01:13:15;;;;;;;42.63;22.85;;;6.10;92.40;;;;;;4978835;28;20029;-80
2022/03/24 01:15:45;;;;;;;40.85;22.75;;;6.10;92.00;;;;;;4972417;28;20109;-79
2022/03/24 01:18:14;;;;;;;36.63;20.00;;;6.00;92.90;;;;;;4975142;28;20028;-80
2022/03/24 01:20:39;;;;;;;35.30;19.02;;;6.00;92.70;;;;;;4992911;28;20510;-80
2022/03/24 01:23:05;;;;;;;39.97;22.30;;;6.00;92.20;;;;;;4991200;28;20052;-79
2022/03/24 01:25:31;;;;;;;38.50;22.48;;;5.90;91.60;;;;;;4984421;28;20109;-79
2022/03/24 01:27:56;;;;;;;38.45;22.92;;;5.80;92.50;;;;;;4986026;28;20078;-79
2022/03/24 01:30:25;;;;;;;38.55;22.88;;;5.80;95.30;;;;;;4965660;28;20072;-80
2022/03/24 01:32:51;;;;;;;33.35;18.58;;;5.70;94.60;;;;;;4993478;28;20026;-78
2022/03/24 01:35:17;;;;;;;36.22;21.65;;;5.80;93.60;;;;;;4986758;28;20048;-78
2022/03/24 01:37:42;;;;;;;42.30;24.40;;;5.80;94.20;;;;;;4992689;28;20363;-80
2022/03/24 01:40:09;;;;;;;40.45;22.83;;;5.50;99.50;;;;;;4976397;28;20469;-78
2022/03/24 01:42:35;;;;;;;44.53;23.55;;;5.30;99.90;;;;;;4992265;28;20512;-80
2022/03/24 01:45:01;;;;;;;38.78;23.52;;;5.20;99.90;;;;;;4975348;28;20177;-81
2022/03/24 01:47:27;;;;;;;35.47;22.00;;;5.10;99.90;;;;;;4987749;28;20378;-80
2022/03/24 01:49:58;;;;;;;40.45;22.83;;;5.10;99.90;;;;;;4992320;28;20041;-80
2022/03/24 01:52:24;;;;;;;40.50;23.58;;;5.10;99.90;;;;;;4993290;28;20044;-82
2022/03/24 01:54:52;;;;;;;45.05;23.15;;;5.10;99.90;;;;;;4974084;28;20060;-80
2022/03/24 01:57:17;;;;;;;46.88;23.30;;;5.00;99.90;;;;;;4979101;28;20045;-78
2022/03/24 01:59:43;;;;;;;43.65;24.55;;;5.00;99.90;;;;;;4984946;28;20443;-79
2022/03/24 02:02:09;;;;;;;42.67;23.80;;;4.90;99.90;;;;;;4981518;28;20362;-79
2022/03/24 02:04:36;;;;;;;40.85;22.85;;;4.90;99.90;;;;;;5008269;28;20082;-80
2022/03/24 02:07:04;;;;;;;40.25;22.70;;;5.00;99.90;;;;;;5002117;28;20562;-80
2022/03/24 02:09:30;;;;;;;44.35;23.60;;;4.90;99.90;;;;;;4995900;28;20044;-80
2022/03/24 02:11:55;;;;;;;32.03;20.05;;;5.10;99.30;;;;;;4978232;28;20030;-80
2022/03/24 02:14:21;;;;;;;29.48;17.95;;;5.20;99.00;;;;;;4985386;28;20034;-79
2022/03/24 02:16:48;;;;;;;38.03;22.25;;;5.30;98.00;;;;;;4970196;28;20061;-80
2022/03/24 02:19:13;;;;;;;42.05;21.10;;;5.20;98.10;;;;;;4975008;28;20120;-79
2022/03/24 02:21:39;;;;;;;40.45;23.38;;;5.00;99.90;;;;;;5005107;28;20117;-79
2022/03/24 02:24:05;;;;;;;32.25;18.92;;;4.90;99.90;;;;;;5005690;28;20124;-80
2022/03/24 02:26:31;;;;;;;34.67;21.92;;;5.00;99.90;;;;;;4973058;28;20037;-80
2022/03/24 02:28:57;;;;;;;29.52;17.48;;;5.00;97.80;;;;;;4989579;28;20498;-79
2022/03/24 02:31:23;;;;;;;29.83;18.00;;;5.00;99.90;;;;;;4989556;28;20484;-79
2022/03/24 02:34:37;;;;;;;34.38;19.60;;;5.10;99.30;;;;;;4971980;28;20390;-80
2022/03/24 02:36:38;;;;;;;41.17;23.80;;;5.00;99.20;;;;;;4993046;28;20560;-80
2022/03/24 02:39:04;;;;;;;37.70;22.48;;;4.80;99.90;;;;;;4989686;28;20121;-80
2022/03/24 02:41:31;;;;;;;39.45;22.77;;;4.70;99.90;;;;;;4994006;28;20116;-79
2022/03/24 02:43:57;;;;;;;34.55;20.63;;;4.70;99.90;;;;;;5006647;28;20064;-82
2022/03/24 02:46:22;;;;;;;34.33;19.08;;;4.60;99.30;;;;;;4987266;28;20033;-81
2022/03/24 02:48:48;;;;;;;40.53;22.52;;;4.50;98.00;;;;;;5005837;28;20060;-82
2022/03/24 02:51:13;;;;;;;36.30;21.40;;;4.50;99.90;;;;;;4996128;28;20093;-82
2022/03/24 02:53:39;;;;;;;36.92;21.90;;;4.60;99.90;;;;;;4986249;28;20145;-81
2022/03/24 02:56:05;;;;;;;36.35;21.33;;;4.50;99.50;;;;;;4985715;28;20096;-82
2022/03/24 02:58:30;;;;;;;38.35;21.35;;;4.40;99.50;;;;;;5002240;28;20026;-81
2022/03/24 03:00:57;;;;;;;43.10;23.02;;;4.40;99.90;;;;;;4985975;28;20045;-82
2022/03/24 03:03:24;;;;;;;42.58;24.15;;;4.30;99.90;;;;;;5003234;28;20022;-82
2022/03/24 03:05:50;;;;;;;41.53;23.33;;;4.20;99.90;;;;;;5002297;28;20029;-81
2022/03/24 03:08:15;;;;;;;36.42;21.13;;;4.00;99.90;;;;;;4998138;28;20022;-81
2022/03/24 03:10:41;;;;;;;33.83;19.50;;;4.10;99.90;;;;;;4986476;28;20036;-82
2022/03/24 03:13:08;;;;;;;48.25;24.60;;;4.20;99.90;;;;;;5007025;28;20029;-83
2022/03/24 03:15:35;;;;;;;45.60;23.65;;;4.10;99.90;;;;;;5012861;28;20025;-82
2022/03/24 03:18:02;;;;;;;45.03;24.52;;;4.00;99.90;;;;;;4991579;28;20030;-82
2022/03/24 03:20:28;;;;;;;46.85;24.63;;;3.90;99.90;;;;;;4984067;28;20167;-82
2022/03/24 03:22:54;;;;;;;39.90;23.63;;;3.70;99.90;;;;;;4991569;28;20033;-82
2022/03/24 03:25:20;;;;;;;40.15;22.83;;;3.70;99.90;;;;;;5019247;28;20026;-82
2022/03/24 03:27:45;;;;;;;48.17;26.17;;;3.70;99.90;;;;;;5007480;28;20598;-82
2022/03/24 03:30:12;;;;;;;44.60;25.45;;;3.70;99.90;;;;;;4992214;28;20085;-82
2022/03/24 03:32:37;;;;;;;45.47;25.85;;;3.60;99.90;;;;;;5009830;28;20037;-82
2022/03/24 03:35:04;;;;;;;47.60;24.73;;;3.60;99.90;;;;;;4990471;28;20028;-83
2022/03/24 03:37:30;;;;;;;44.05;23.85;;;3.70;99.90;;;;;;4986038;28;20029;-82
2022/03/24 03:39:56;;;;;;;44.38;25.13;;;3.70;99.90;;;;;;5010858;28;20033;-83
2022/03/24 03:42:23;;;;;;;43.30;25.27;;;3.60;99.90;;;;;;5019200;28;20034;-82
2022/03/24 03:44:48;;;;;;;47.10;25.63;;;3.70;99.90;;;;;;4990368;28;20148;-83
2022/03/24 03:47:14;;;;;;;45.55;25.95;;;3.60;99.90;;;;;;4992116;28;20598;-82
2022/03/24 03:49:39;;;;;;;40.75;23.80;;;3.50;99.90;;;;;;5009182;28;20058;-81
2022/03/24 03:52:05;;;;;;;44.83;25.17;;;3.50;99.90;;;;;;5009476;28;20036;-82
2022/03/24 03:54:31;;;;;;;49.28;25.30;;;3.60;99.90;;;;;;5003869;28;20033;-82
2022/03/24 03:56:58;;;;;;;47.03;26.23;;;3.30;99.90;;;;;;4999736;28;20170;-81
2022/03/24 03:59:23;;;;;;;47.22;25.50;;;3.20;99.90;;;;;;4995432;28;20041;-81
2022/03/24 04:01:49;;;;;;;46.03;26.45;;;3.20;99.90;;;;;;5002948;28;20089;-81
2022/03/24 04:04:15;;;;;;;49.67;24.70;;;3.30;99.90;;;;;;4987957;28;20092;-82
2022/03/24 04:06:41;;;;;;;47.90;26.38;;;3.20;99.90;;;;;;4992805;28;20033;-82
2022/03/24 04:09:06;;;;;;;46.17;26.30;;;3.20;99.90;;;;;;5010100;28;20028;-81
2022/03/24 04:11:34;;;;;;;48.67;25.40;;;3.00;99.90;;;;;;4983648;28;20030;-82
2022/03/24 04:13:59;;;;;;;48.97;26.67;;;2.80;99.90;;;;;;4990708;28;20085;-82
2022/03/24 04:16:25;;;;;;;44.80;24.67;;;2.80;99.90;;;;;;4989288;28;20434;-82
2022/03/24 04:18:50;;;;;;;48.42;26.40;;;2.90;99.90;;;;;;5004157;28;20042;-82
2022/03/24 04:21:16;;;;;;;49.88;26.92;;;2.90;99.90;;;;;;4999343;28;20029;-82
2022/03/24 04:23:42;;;;;;;46.55;26.35;;;2.90;99.90;;;;;;5006465;28;20034;-82
2022/03/24 04:26:08;;;;;;;50.00;26.88;;;2.90;99.90;;;;;;4993337;28;20026;-82
2022/03/24 04:28:34;;;;;;;48.65;26.40;;;2.90;99.90;;;;;;4992454;28;20718;-82
2022/03/24 04:30:59;;;;;;;44.92;25.33;;;2.70;99.90;;;;;;5010030;28;20030;-84
2022/03/24 04:33:25;;;;;;;49.97;27.63;;;2.80;99.90;;;;;;5005413;28;20107;-82
2022/03/24 04:35:51;;;;;;;46.45;24.48;;;2.90;99.90;;;;;;4996980;28;20056;-82
2022/03/24 04:38:16;;;;;;;48.08;26.67;;;2.70;99.90;;;;;;4986317;28;20035;-82
2022/03/24 04:40:42;;;;;;;45.22;25.52;;;2.50;99.90;;;;;;5018825;28;20025;-82
2022/03/24 04:43:08;;;;;;;43.83;24.55;;;2.70;99.90;;;;;;4987729;28;20025;-83
2022/03/24 04:45:34;;;;;;;44.00;24.70;;;2.80;99.90;;;;;;5001940;28;20121;-83
2022/03/24 04:48:00;;;;;;;37.67;20.33;;;2.80;99.90;;;;;;4986550;28;20030;-84
2022/03/24 04:50:26;;;;;;;40.05;23.30;;;3.30;99.90;;;;;;4986723;28;20042;-84
2022/03/24 04:52:52;;;;;;;47.47;25.10;;;3.20;99.90;;;;;;4986076;28;20457;-84
2022/03/24 04:55:18;;;;;;;39.55;22.35;;;3.10;99.90;;;;;;4987257;28;20030;-84
2022/03/24 04:57:44;;;;;;;40.78;22.88;;;3.10;99.90;;;;;;4991266;28;20033;-83
2022/03/24 05:00:10;;;;;;;41.75;22.65;;;2.90;99.90;;;;;;4991609;28;20049;-83
2022/03/24 05:02:36;;;;;;;41.25;24.10;;;2.90;99.90;;;;;;5023205;28;20013;-84
2022/03/24 05:05:02;;;;;;;46.30;24.55;;;2.90;99.90;;;;;;5005885;28;20123;-83
2022/03/24 05:07:27;;;;;;;57.00;25.55;;;2.80;99.90;;;;;;4992688;28;20034;-83
2022/03/24 05:09:53;;;;;;;39.50;22.95;;;2.80;99.90;;;;;;5008776;28;20097;-84
2022/03/24 05:12:18;;;;;;;38.42;21.17;;;2.80;99.90;;;;;;5006216;28;20055;-84
2022/03/24 05:14:44;;;;;;;38.97;21.85;;;3.00;99.90;;;;;;4993782;28;20017;-84
2022/03/24 05:17:09;;;;;;;35.90;19.23;;;3.20;99.90;;;;;;4991717;28;20067;-84
2022/03/24 05:19:35;;;;;;;34.60;19.98;;;3.30;99.90;;;;;;5009520;28;20062;-83
2022/03/24 05:22:01;;;;;;;35.75;20.38;;;3.30;99.90;;;;;;5027860;28;20182;-83
2022/03/24 05:24:27;;;;;;;45.08;25.63;;;3.20;99.90;;;;;;4993884;28;20045;-83
2022/03/24 05:26:52;;;;;;;42.92;23.60;;;3.10;99.90;;;;;;5012966;28;20440;-82
2022/03/24 05:29:18;;;;;;;40.55;21.52;;;2.90;99.90;;;;;;4995260;28;20030;-83
2022/03/24 05:31:44;;;;;;;33.50;19.75;;;2.90;99.90;;;;;;4985547;28;20471;-83
2022/03/24 05:34:09;;;;;;;32.80;19.98;;;3.00;99.90;;;;;;5000011;28;20036;-83
2022/03/24 05:36:35;;;;;;;48.53;24.40;;;2.90;99.90;;;;;;5011861;28;20060;-84
2022/03/24 05:39:00;;;;;;;46.10;25.33;;;2.80;99.90;;;;;;5011154;28;20032;-84
2022/03/24 05:41:26;;;;;;;49.88;27.58;;;2.70;99.90;;;;;;4990859;28;20025;-84
2022/03/24 05:44:04;;;;;;;43.67;25.52;;;2.50;99.90;;;;;;5011158;28;20018;-84
2022/03/24 05:46:30;;;;;;;50.58;26.75;;;2.60;99.90;;;;;;4986024;28;20289;-81
2022/03/24 05:48:56;;;;;;;52.60;26.13;;;2.70;99.90;;;;;;5022008;28;20314;-81
2022/03/24 05:51:21;;;;;;;45.10;23.73;;;2.70;99.90;;;;;;4984107;28;20049;-80
2022/03/24 05:53:47;;;;;;;50.90;27.20;;;2.70;99.90;;;;;;4980366;28;20029;-83
2022/03/24 05:56:13;;;;;;;52.75;26.98;;;2.70;99.90;;;;;;4983253;28;20060;-82
2022/03/24 05:58:38;;;;;;;53.60;27.95;;;2.60;99.90;;;;;;4988809;28;20073;-82
2022/03/24 06:01:05;;;;;;;47.30;25.60;;;2.40;99.90;;;;;;4988950;28;20033;-82
2022/03/24 06:03:31;;;;;;;49.60;26.45;;;2.40;99.90;;;;;;4983031;28;20049;-82
2022/03/24 06:05:58;;;;;;;46.78;26.20;;;2.50;99.90;;;;;;4970747;28;20132;-82
2022/03/24 06:08:24;;;;;;;46.90;26.30;;;2.50;99.90;;;;;;4988061;28;20551;-79
2022/03/24 06:10:51;;;;;;;48.88;28.00;;;2.40;99.90;;;;;;4979213;28;20030;-81
2022/03/24 06:13:17;;;;;;;44.22;24.83;;;2.40;99.90;;;;;;4970721;28;20032;-81
2022/03/24 06:15:42;;;;;;;37.17;21.58;;;2.40;99.90;;;;;;5000936;28;20560;-81
2022/03/24 06:18:08;;;;;;;43.00;21.67;;;2.60;99.90;;;;;;4991376;28;20033;-80
2022/03/24 06:20:34;;;;;;;40.75;21.83;;;3.00;99.90;;;;;;4976755;28;20378;-82
2022/03/24 06:22:59;;;;;;;40.10;23.13;;;3.10;99.90;;;;;;4994592;28;20060;-83
2022/03/24 06:25:25;;;;;;;47.15;27.13;;;3.20;99.90;;;;;;4992024;28;20432;-82
2022/03/24 06:27:50;;;;;;;58.65;27.60;;;3.00;99.90;;;;;;4984547;28;20030;-81
2022/03/24 06:30:16;;;;;;;53.55;28.70;;;2.90;99.90;;;;;;4987177;28;20489;-82
2022/03/24 06:32:42;;;;;;;53.97;28.30;;;2.90;99.90;;;;;;4973949;28;20501;-84
2022/03/24 06:35:08;;;;;;;50.25;29.02;;;2.90;99.90;;;;;;4991062;28;20025;-83
2022/03/24 06:37:40;;;;;;;52.63;26.45;;;2.90;99.90;;;;;;4993804;28;20034;-83
2022/03/24 06:40:09;;;;;;;54.65;28.70;;;3.00;99.90;;;;;;4978461;28;20742;-81
2022/03/24 06:42:35;;;;;;;53.53;28.48;;;3.10;99.90;;;;;;4987433;28;20038;-83
2022/03/24 06:45:00;;;;;;;52.10;29.15;;;3.40;99.90;;;;;;4995226;28;20048;-81
2022/03/24 06:47:26;;;;;;;58.03;29.33;;;3.40;99.90;;;;;;4977851;28;20128;-81
2022/03/24 06:49:51;;;;;;;57.58;29.00;;;3.40;99.90;;;;;;4989187;28;20037;-81
2022/03/24 06:52:17;;;;;;;56.88;29.23;;;3.40;99.90;;;;;;4974915;28;20072;-81
2022/03/24 06:54:42;;;;;;;55.28;29.20;;;3.60;99.90;;;;;;5003961;28;20037;-82
2022/03/24 06:57:14;;;;;;;43.40;26.88;;;3.70;99.90;;;;;;5001470;28;20062;-82
2022/03/24 06:59:43;;;;;;;53.70;29.38;;;3.80;99.90;;;;;;4986441;28;20080;-82
2022/03/24 07:02:09;;;;;;;57.72;29.38;;;4.00;99.90;;;;;;5004881;28;20390;-82
2022/03/24 07:04:36;;;;;;;54.35;29.40;;;4.10;99.90;;;;;;4992859;28;20092;-82
2022/03/24 07:07:04;;;;;;;44.38;25.73;;;4.20;99.90;;;;;;4992143;28;20033;-84
2022/03/24 07:09:30;;;;;;;47.97;26.10;;;4.50;99.90;;;;;;4974025;28;20074;-81
2022/03/24 07:11:55;;;;;;;49.90;27.08;;;4.60;99.90;;;;;;4971467;28;20048;-82
2022/03/24 07:14:22;;;;;;;51.33;28.90;;;4.60;99.90;;;;;;4974116;28;20034;-82
2022/03/24 07:16:48;;;;;;;43.78;22.20;;;4.70;99.90;;;;;;4981437;28;25155;-81
2022/03/24 07:19:14;;;;;;;52.47;28.73;;;5.00;99.90;;;;;;4968553;28;20056;-81
2022/03/24 07:21:41;;;;;;;47.72;25.90;;;5.20;99.90;;;;;;4974874;28;20037;-81
2022/03/24 07:24:07;;;;;;;39.22;21.75;;;5.30;99.90;;;;;;4975290;28;20034;-83
2022/03/24 07:26:33;;;;;;;39.53;24.10;;;5.50;99.90;;;;;;4984816;28;20028;-81
2022/03/24 07:28:59;;;;;;;33.75;20.00;;;5.60;99.90;;;;;;4972096;28;20460;-80
2022/03/24 07:31:24;;;;;;;53.20;28.30;;;5.80;99.90;;;;;;4976781;28;20040;-81
2022/03/24 07:33:50;;;;;;;59.63;27.20;;;5.90;99.90;;;;;;4986374;28;20017;-81
2022/03/24 07:36:16;;;;;;;40.50;24.92;;;6.00;99.90;;;;;;4973881;28;20057;-82
2022/03/24 07:38:42;;;;;;;40.50;23.60;;;6.20;99.90;;;;;;4973004;28;20115;-80
2022/03/24 07:41:09;;;;;;;31.67;19.13;;;6.30;99.90;;;;;;4975960;28;20481;-82
2022/03/24 07:43:34;;;;;;;54.25;27.35;;;6.40;99.90;;;;;;4992109;28;20026;-80
2022/03/24 07:46:00;;;;;;;50.33;28.08;;;6.60;99.90;;;;;;4989539;28;20393;-81
2022/03/24 07:48:27;;;;;;;46.67;26.40;;;6.70;99.90;;;;;;4989434;28;20596;-81
2022/03/24 07:50:55;;;;;;;49.65;27.75;;;7.00;99.90;;;;;;4987803;28;20042;-81
2022/03/24 07:53:33;;;;;;;47.40;28.05;;;7.10;99.90;;;;;;4972282;28;20042;-81
2022/03/24 07:55:59;;;;;;;47.25;25.38;;;7.20;99.90;;;;;;5005480;28;20128;-81
2022/03/24 07:58:25;;;;;;;46.63;24.30;;;7.30;99.90;;;;;;4976480;28;20048;-82
2022/03/24 08:00:50;;;;;;;49.30;29.15;;;7.50;99.90;;;;;;4984949;28;20478;-81
2022/03/24 08:03:20;;;;;;;57.45;27.40;;;7.40;99.90;;;;;;4974738;28;20397;-82
2022/03/24 08:05:46;;;;;;;43.53;24.70;;;7.90;99.90;;;;;;4991289;28;20408;-81
2022/03/24 08:08:12;;;;;;;33.60;20.00;;;8.10;99.90;;;;;;4976465;28;20029;-81
2022/03/24 08:10:42;;;;;;;34.75;19.70;;;8.40;99.90;;;;;;5002792;28;20540;-81
2022/03/24 08:13:08;;;;;;;37.78;22.20;;;8.60;99.90;;;;;;4976537;28;20393;-81
2022/03/24 08:15:35;;;;;;;38.30;21.05;;;8.80;99.90;;;;;;4988240;28;20034;-81
2022/03/24 08:18:01;;;;;;;55.70;29.17;;;9.00;99.90;;;;;;4977790;28;20553;-81
2022/03/24 08:20:26;;;;;;;54.38;29.42;;;8.90;99.90;;;;;;4968259;28;20163;-81
2022/03/24 08:22:54;;;;;;;50.20;27.77;;;9.00;99.90;;;;;;4972511;28;20393;-80
2022/03/24 08:25:20;;;;;;;30.67;19.00;;;9.30;99.90;;;;;;4983266;28;20598;-80
2022/03/24 08:27:46;;;;;;;37.15;22.98;;;9.60;99.90;;;;;;4974757;28;20121;-81
2022/03/24 08:30:12;;;;;;;34.67;19.50;;;9.90;99.90;;;;;;4987426;28;20040;-81
2022/03/24 08:32:38;;;;;;;41.40;23.83;;;10.00;99.90;;;;;;5005883;28;20443;-81
2022/03/24 08:35:04;;;;;;;59.05;31.15;;;10.10;99.90;;;;;;4990210;28;20389;-81
2022/03/24 08:37:30;;;;;;;51.08;27.00;;;9.70;99.50;;;;;;4982641;28;20036;-81
2022/03/24 08:39:56;;;;;;;37.85;21.58;;;10.00;99.40;;;;;;4971615;28;20073;-82
2022/03/24 08:42:21;;;;;;;58.33;29.73;;;10.20;99.90;;;;;;4973936;28;20442;-81
2022/03/24 08:44:47;;;;;;;117.72;48.35;;;10.40;98.70;;;;;;4998523;28;20029;-83
2022/03/24 08:47:13;;;;;;;51.40;26.80;;;10.80;98.60;;;;;;4992656;28;20233;-84
2022/03/24 08:49:38;;;;;;;42.05;22.50;;;11.20;97.50;;;;;;5005138;28;20121;-82
2022/03/24 08:52:04;;;;;;;35.75;19.85;;;11.30;97.20;;;;;;4975156;28;20481;-82
2022/03/24 08:54:31;;;;;;;39.88;22.95;;;11.30;96.30;;;;;;4990399;28;20440;-82
2022/03/24 08:56:57;;;;;;;64.55;31.20;;;11.50;96.40;;;;;;4973704;28;20026;-83
2022/03/24 08:59:22;;;;;;;63.53;31.98;;;11.50;94.20;;;;;;4968253;28;20052;-83
2022/03/24 09:01:48;;;;;;;42.08;23.27;;;11.10;95.90;;;;;;4986831;28;20065;-83
2022/03/24 09:04:14;;;;;;;46.65;25.92;;;11.10;96.80;;;;;;4992415;28;20033;-83
2022/03/24 09:06:39;;;;;;;49.65;26.98;;;11.60;94.50;;;;;;4987941;28;20029;-83
2022/03/24 09:09:05;;;;;;;43.17;23.35;;;11.60;94.70;;;;;;4990195;28;20036;-83
2022/03/24 09:11:31;;;;;;;36.58;21.40;;;12.30;94.50;;;;;;4973012;28;20113;-83
2022/03/24 09:13:58;;;;;;;36.72;22.25;;;12.60;94.70;;;;;;4988396;28;20034;-82
2022/03/24 09:16:23;;;;;;;50.95;28.27;;;12.90;93.20;;;;;;4990554;28;20029;-82
2022/03/24 09:18:49;;;;;;;44.05;22.85;;;13.20;91.20;;;;;;4991485;28;20032;-83
2022/03/24 09:21:16;;;;;;;45.05;23.45;;;13.60;90.60;;;;;;4972868;28;20153;-83
2022/03/24 09:23:44;;;;;;;47.70;28.23;;;13.90;88.60;;;;;;4972285;28;20110;-82
2022/03/24 09:26:10;;;;;;;53.25;30.98;;;13.50;87.80;;;;;;4975700;28;20029;-83
2022/03/24 09:28:36;;;;;;;62.03;34.33;;;13.30;82.20;;;;;;4987661;28;20037;-83
2022/03/24 09:31:01;;;;;;;43.38;24.63;;;13.10;77.70;;;;;;4981480;28;20044;-83
2022/03/24 09:33:27;;;;;;;68.65;33.13;;;13.10;90.00;;;;;;4970413;28;20036;-83
2022/03/24 09:35:53;;;;;;;55.20;29.75;;;12.80;82.90;;;;;;4977900;28;20057;-83
2022/03/24 09:38:18;;;;;;;39.22;23.38;;;12.80;87.00;;;;;;4984594;28;20501;-84
2022/03/24 09:40:46;;;;;;;55.30;31.23;;;13.80;88.20;;;;;;4999900;28;20432;-83
2022/03/24 09:43:14;;;;;;;50.10;27.70;;;14.10;83.00;;;;;;4977669;28;20041;-83
2022/03/24 09:45:41;;;;;;;53.67;28.88;;;14.00;83.50;;;;;;4991902;28;20033;-83
2022/03/24 09:48:10;;;;;;;60.72;32.97;;;13.90;84.50;;;;;;4990554;28;20041;-83
2022/03/24 09:50:36;;;;;;;40.17;23.92;;;13.90;77.20;;;;;;4988334;28;20069;-83
2022/03/24 09:53:02;;;;;;;40.42;23.13;;;14.50;85.00;;;;;;4992552;28;20482;-84
2022/03/24 09:55:32;;;;;;;46.95;24.70;;;15.50;82.20;;;;;;4971807;28;20030;-84
2022/03/24 09:58:00;;;;;;;58.47;33.92;;;16.10;76.50;;;;;;4989612;28;20460;-84
2022/03/24 10:00:26;;;;;;;34.67;22.17;;;15.60;69.60;;;;;;4978486;28;20038;-83
2022/03/24 10:03:12;;;;;;;59.28;34.08;;;15.20;77.10;;;;;;4996435;28;20047;-84
2022/03/24 10:05:53;;;;;;;41.88;23.80;;;15.10;71.30;;;;;;4973029;28;20397;-83
2022/03/24 10:08:19;;;;;;;58.60;33.10;;;15.60;77.50;;;;;;4993670;28;20041;-83
2022/03/24 10:10:44;;;;;;;62.88;34.42;;;15.50;77.40;;;;;;4993580;28;20045;-84
2022/03/24 10:13:10;;;;;;;41.08;23.92;;;15.20;73.60;;;;;;4976848;28;20526;-83
2022/03/24 10:15:37;;;;;;;57.35;32.88;;;16.10;78.30;;;;;;4985894;28;20367;-85
2022/03/24 10:18:03;;;;;;;58.08;32.75;;;16.80;72.80;;;;;;4974930;28;20043;-83
2022/03/24 10:20:29;;;;;;;39.92;24.33;;;16.80;65.90;;;;;;4975589;28;20026;-83
2022/03/24 10:22:58;;;;;;;47.60;29.70;;;17.10;73.50;;;;;;4976552;28;20041;-83
2022/03/24 10:25:25;;;;;;;41.92;25.08;;;17.90;66.90;;;;;;5003373;28;20096;-83
2022/03/24 10:28:04;;;;;;;50.25;28.88;;;18.40;66.10;;;;;;4991963;28;20033;-83
2022/03/24 10:30:53;;;;;;;62.53;34.20;;;18.40;65.20;;;;;;5003457;28;20049;-83
2022/03/24 10:33:33;;;;;;;42.08;25.58;;;18.20;63.60;;;;;;5008623;28;20041;-83
2022/03/24 10:36:11;;;;;;;56.13;33.72;;;18.20;66.70;;;;;;5005698;28;20792;-82
2022/03/24 10:38:41;;;;;;;56.08;33.33;;;17.90;60.60;;;;;;4987535;28;20519;-83
2022/03/24 10:41:37;;;;;;;;;;;;;;;;;;;;;
2022/03/24 10:44:12;;;;;;;46.00;27.07;;;17.60;61.80;;;;;;5006129;28;20508;-84
2022/03/24 10:46:41;;;;;;;43.60;25.48;;;17.80;64.40;;;;;;4972489;28;20043;-81
2022/03/24 10:49:23;;;;;;;55.05;33.60;;;17.80;65.10;;;;;;4992828;28;20038;-83
2022/03/24 10:51:50;;;;;;;49.47;30.25;;;18.10;58.40;;;;;;4990673;28;20081;-82
2022/03/24 10:54:15;;;;;;;53.88;33.10;;;18.00;63.10;;;;;;4978285;28;20047;-82
2022/03/24 10:56:58;;;;;;;48.25;31.58;;;16.90;52.90;;;;;;5008310;28;20029;-84
2022/03/24 10:59:25;;;;;;;45.72;28.33;;;15.90;60.50;;;;;;5006061;28;20053;-82
2022/03/24 11:01:53;;;;;;;38.75;22.95;;;16.40;62.50;;;;;;4979131;28;20580;-81
2022/03/24 11:04:19;;;;;;;53.53;33.15;;;18.40;63.00;;;;;;4979341;28;20029;-82
2022/03/24 11:06:52;;;;;;;46.25;28.33;;;17.80;58.70;;;;;;4976642;28;20056;-82
2022/03/24 11:09:22;;;;;;;39.55;25.73;;;17.70;61.40;;;;;;4972129;28;20034;-83
2022/03/24 11:11:47;;;;;;;33.28;21.52;;;18.50;60.70;;;;;;4998298;28;20033;-84
2022/03/24 11:14:13;;;;;;;37.80;23.10;;;20.10;57.60;;;;;;4983432;28;20533;-82
2022/03/24 11:16:38;;;;;;;52.30;32.17;;;20.80;53.40;;;;;;4971808;28;20624;-79
2022/03/24 11:19:12;;;;;;;36.95;23.27;;;21.10;52.60;;;;;;4975077;28;20021;-81
2022/03/24 11:21:50;;;;;;;40.88;25.10;;;21.20;51.50;;;;;;4971495;28;20037;-83
2022/03/24 11:24:16;;;;;;;35.78;24.10;;;22.00;49.30;;;;;;4990373;28;20046;-82
2022/03/24 11:26:41;;;;;;;47.08;31.58;;;22.30;46.60;;;;;;4970877;28;20046;-81
2022/03/24 11:29:07;;;;;;;51.15;30.67;;;21.70;44.70;;;;;;4970992;28;20351;-80
2022/03/24 11:31:33;;;;;;;49.63;30.38;;;21.00;48.00;;;;;;5003068;28;20485;-80
2022/03/24 11:34:01;;;;;;;50.53;32.17;;;21.60;46.60;;;;;;5002843;28;20033;-80
2022/03/24 11:36:28;;;;;;;52.47;32.42;;;21.50;49.40;;;;;;4973276;28;20486;-80
2022/03/24 11:38:55;;;;;;;54.78;32.22;;;19.50;48.00;;;;;;4975409;28;20030;-80
2022/03/24 11:41:22;;;;;;;45.45;27.95;;;19.20;49.60;;;;;;4971268;28;20377;-81
2022/03/24 11:43:50;;;;;;;48.53;31.65;;;19.30;52.60;;;;;;4996945;28;20057;-80
2022/03/24 11:46:44;;;;;;;49.60;29.25;;;19.70;50.70;;;;;;4986184;28;20034;-81
2022/03/24 11:49:23;;;;;;;48.88;30.17;;;19.20;50.00;;;;;;5001620;28;20028;-79
2022/03/24 11:51:50;;;;;;;49.25;30.20;;;18.80;51.70;;;;;;5005033;28;20062;-80
2022/03/24 11:54:25;;;;;;;44.47;28.33;;;18.80;52.10;;;;;;4973303;28;20434;-81
2022/03/24 11:57:10;;;;;;;43.72;28.33;;;20.30;48.80;;;;;;5007652;28;20411;-81
2022/03/24 11:59:35;;;;;;;44.67;26.77;;;20.10;47.70;;;;;;4976574;28;20033;-81
2022/03/24 12:02:15;;;;;;;42.33;28.70;;;20.00;51.90;;;;;;4986869;28;20030;-81
2022/03/24 12:04:56;;;;;;;39.08;25.65;;;19.90;50.30;;;;;;4989209;28;20707;-82
2022/03/24 12:07:22;;;;;;;40.33;27.23;;;19.30;48.80;;;;;;4987712;28;20034;-81
2022/03/24 12:09:56;;;;;;;40.15;26.85;;;20.00;50.00;;;;;;4931825;28;1116611;-82
2022/03/24 12:12:21;;;;;;;51.05;28.90;;;19.20;49.30;;;;;;4973060;28;20440;-82
2022/03/24 12:14:47;;;;;;;35.28;22.60;;;19.70;47.30;;;;;;4986921;28;20037;-82
2022/03/24 12:17:19;;;;;;;37.58;22.60;;;20.50;52.70;;;;;;4988624;28;20040;-82
2022/03/24 12:19:54;;;;;;;41.78;24.00;;;22.20;46.80;;;;;;5003241;28;20033;-83
2022/03/24 12:22:28;;;;;;;38.58;24.42;;;22.80;44.10;;;;;;4979308;28;20034;-82
2022/03/24 12:25:00;;;;;;;38.45;24.27;;;22.00;46.50;;;;;;5002107;28;20034;-83
2022/03/24 12:27:30;;;;;;;46.55;30.10;;;23.20;42.60;;;;;;5021917;28;20555;-82
2022/03/24 12:30:12;;;;;;;50.72;30.77;;;22.70;44.20;;;;;;4976684;28;20116;-82
2022/03/24 12:32:38;;;;;;;38.58;26.50;;;21.00;47.40;;;;;;4974658;28;20034;-84
2022/03/24 12:35:04;;;;;;;28.88;19.17;;;21.40;47.50;;;;;;4975118;28;20083;-82